sensor_id;sensor_type;location;lat;lon;timestamp;temperature;humidity
75217;HTU21D;63800;51.972;5.682;2024-02-04T00:01:49;-7.78;118.99
75217;HTU21D;63800;51.972;5.682;2024-02-04T00:04:15;-7.76;118.99
75217;HTU21D;63800;51.972;5.682;2024-02-04T00:06:40;-7.76;118.99
75217;HTU21D;63800;51.972;5.682;2024-02-04T00:09:06;-7.75;118.99
75217;HTU21D;63800;51.972;5.682;2024-02-04T00:11:31;-7.78;118.99
75217;HTU21D;63800;51.972;5.682;2024-02-04T00:13:57;-7.81;118.99
75217;HTU21D;63800;51.972;5.682;2024-02-04T00:16:22;-7.81;118.99
75217;HTU21D;63800;51.972;5.682;2024-02-04T00:18:48;-7.85;118.99
75217;HTU21D;63800;51.972;5.682;2024-02-04T00:21:13;-7.85;118.99
75217;HTU21D;63800;51.972;5.682;2024-02-04T00:23:39;-7.86;118.99
75217;HTU21D;63800;51.972;5.682;2024-02-04T00:26:04;-7.80;118.99
75217;HTU21D;63800;51.972;5.682;2024-02-04T00:28:30;-7.80;118.99
75217;HTU21D;63800;51.972;5.682;2024-02-04T00:30:56;-7.81;118.99
75217;HTU21D;63800;51.972;5.682;2024-02-04T00:33:23;-7.78;118.99
75217;HTU21D;63800;51.972;5.682;2024-02-04T00:35:49;-7.79;118.99
75217;HTU21D;63800;51.972;5.682;2024-02-04T00:38:14;-7.82;118.99
75217;HTU21D;63800;51.972;5.682;2024-02-04T00:40:40;-7.82;118.99
75217;HTU21D;63800;51.972;5.682;2024-02-04T00:43:05;-7.80;118.99
75217;HTU21D;63800;51.972;5.682;2024-02-04T00:45:31;-7.81;118.99
75217;HTU21D;63800;51.972;5.682;2024-02-04T00:47:56;-7.82;118.99
75217;HTU21D;63800;51.972;5.682;2024-02-04T00:50:22;-7.75;118.99
75217;HTU21D;63800;51.972;5.682;2024-02-04T00:52:47;-7.74;118.99
75217;HTU21D;63800;51.972;5.682;2024-02-04T00:55:13;-7.78;118.99
75217;HTU21D;63800;51.972;5.682;2024-02-04T00:57:38;-7.71;118.99
75217;HTU21D;63800;51.972;5.682;2024-02-04T01:00:04;-7.67;118.99
75217;HTU21D;63800;51.972;5.682;2024-02-04T01:02:30;-7.70;118.99
75217;HTU21D;63800;51.972;5.682;2024-02-04T01:04:55;-7.70;118.99
75217;HTU21D;63800;51.972;5.682;2024-02-04T01:07:21;-7.71;118.99
75217;HTU21D;63800;51.972;5.682;2024-02-04T01:09:46;-7.74;118.99
75217;HTU21D;63800;51.972;5.682;2024-02-04T01:12:12;-7.77;118.99
75217;HTU21D;63800;51.972;5.682;2024-02-04T01:14:37;-7.77;118.99
75217;HTU21D;63800;51.972;5.682;2024-02-04T01:17:03;-7.69;118.99
75217;HTU21D;63800;51.972;5.682;2024-02-04T01:19:28;-7.64;118.99
75217;HTU21D;63800;51.972;5.682;2024-02-04T01:21:54;-7.66;118.99
75217;HTU21D;63800;51.972;5.682;2024-02-04T01:24:19;-7.68;118.99
75217;HTU21D;63800;51.972;5.682;2024-02-04T01:26:45;-7.66;118.99
75217;HTU21D;63800;51.972;5.682;2024-02-04T01:29:10;-7.59;118.99
75217;HTU21D;63800;51.972;5.682;2024-02-04T01:31:36;-7.60;118.99
75217;HTU21D;63800;51.972;5.682;2024-02-04T01:34:02;-7.56;118.99
75217;HTU21D;63800;51.972;5.682;2024-02-04T01:36:27;-7.51;118.99
75217;HTU21D;63800;51.972;5.682;2024-02-04T01:38:53;-7.49;118.99
75217;HTU21D;63800;51.972;5.682;2024-02-04T01:41:18;-7.50;118.99
75217;HTU21D;63800;51.972;5.682;2024-02-04T01:43:43;-7.54;118.99
75217;HTU21D;63800;51.972;5.682;2024-02-04T01:46:09;-7.48;118.99
75217;HTU21D;63800;51.972;5.682;2024-02-04T01:48:35;-7.51;118.99
75217;HTU21D;63800;51.972;5.682;2024-02-04T01:51:02;-7.51;118.99
75217;HTU21D;63800;51.972;5.682;2024-02-04T01:53:28;-7.46;118.99
75217;HTU21D;63800;51.972;5.682;2024-02-04T01:55:55;-7.47;118.99
75217;HTU21D;63800;51.972;5.682;2024-02-04T01:58:22;-7.44;118.99
75217;HTU21D;63800;51.972;5.682;2024-02-04T02:00:48;-7.42;118.99
75217;HTU21D;63800;51.972;5.682;2024-02-04T02:03:15;-7.44;118.99
75217;HTU21D;63800;51.972;5.682;2024-02-04T02:05:41;-7.41;118.99
75217;HTU21D;63800;51.972;5.682;2024-02-04T02:08:07;-7.39;118.99
75217;HTU21D;63800;51.972;5.682;2024-02-04T02:10:32;-7.40;118.99
75217;HTU21D;63800;51.972;5.682;2024-02-04T02:13:22;-7.37;118.99
75217;HTU21D;63800;51.972;5.682;2024-02-04T02:15:54;-7.40;118.99
75217;HTU21D;63800;51.972;5.682;2024-02-04T02:18:29;-7.39;118.99
75217;HTU21D;63800;51.972;5.682;2024-02-04T02:23:30;-7.39;118.99
75217;HTU21D;63800;51.972;5.682;2024-02-04T02:25:57;-7.39;118.99
75217;HTU21D;63800;51.972;5.682;2024-02-04T02:28:23;-7.38;118.99
75217;HTU21D;63800;51.972;5.682;2024-02-04T02:30:48;-7.27;118.99
75217;HTU21D;63800;51.972;5.682;2024-02-04T02:33:14;-7.32;118.99
75217;HTU21D;63800;51.972;5.682;2024-02-04T02:35:40;-7.34;118.99
75217;HTU21D;63800;51.972;5.682;2024-02-04T02:41:08;-7.29;118.99
75217;HTU21D;63800;51.972;5.682;2024-02-04T02:43:35;-7.26;118.99
75217;HTU21D;63800;51.972;5.682;2024-02-04T02:46:03;-7.26;118.99
75217;HTU21D;63800;51.972;5.682;2024-02-04T02:48:29;-7.34;118.99
75217;HTU21D;63800;51.972;5.682;2024-02-04T02:50:54;-7.34;118.99
75217;HTU21D;63800;51.972;5.682;2024-02-04T02:53:20;-7.34;118.99
75217;HTU21D;63800;51.972;5.682;2024-02-04T02:55:46;-7.33;118.99
75217;HTU21D;63800;51.972;5.682;2024-02-04T02:58:12;-7.31;118.99
75217;HTU21D;63800;51.972;5.682;2024-02-04T03:00:38;-7.37;118.99
75217;HTU21D;63800;51.972;5.682;2024-02-04T03:03:03;-7.36;118.99
75217;HTU21D;63800;51.972;5.682;2024-02-04T03:05:29;-7.39;118.99
75217;HTU21D;63800;51.972;5.682;2024-02-04T03:07:55;-7.47;118.99
75217;HTU21D;63800;51.972;5.682;2024-02-04T03:10:20;-7.45;118.99
75217;HTU21D;63800;51.972;5.682;2024-02-04T03:12:45;-7.39;118.99
75217;HTU21D;63800;51.972;5.682;2024-02-04T03:15:11;-7.44;118.99
75217;HTU21D;63800;51.972;5.682;2024-02-04T03:17:36;-7.46;118.99
75217;HTU21D;63800;51.972;5.682;2024-02-04T03:20:02;-7.55;118.99
75217;HTU21D;63800;51.972;5.682;2024-02-04T03:22:27;-7.55;118.99
75217;HTU21D;63800;51.972;5.682;2024-02-04T03:24:53;-7.51;118.99
75217;HTU21D;63800;51.972;5.682;2024-02-04T03:27:19;-7.51;118.99
75217;HTU21D;63800;51.972;5.682;2024-02-04T03:29:44;-7.48;118.99
75217;HTU21D;63800;51.972;5.682;2024-02-04T03:32:12;-7.46;118.99
75217;HTU21D;63800;51.972;5.682;2024-02-04T03:34:38;-7.44;118.99
75217;HTU21D;63800;51.972;5.682;2024-02-04T03:37:05;-7.44;118.99
75217;HTU21D;63800;51.972;5.682;2024-02-04T03:39:30;-7.41;118.99
75217;HTU21D;63800;51.972;5.682;2024-02-04T03:41:56;-7.36;118.99
75217;HTU21D;63800;51.972;5.682;2024-02-04T03:44:21;-7.35;118.99
75217;HTU21D;63800;51.972;5.682;2024-02-04T03:46:48;-7.31;118.99
75217;HTU21D;63800;51.972;5.682;2024-02-04T03:49:14;-7.29;118.99
75217;HTU21D;63800;51.972;5.682;2024-02-04T03:51:39;-7.29;118.99
75217;HTU21D;63800;51.972;5.682;2024-02-04T03:54:05;-7.29;118.99
75217;HTU21D;63800;51.972;5.682;2024-02-04T03:56:30;-7.24;118.99
75217;HTU21D;63800;51.972;5.682;2024-02-04T03:58:56;-7.27;118.99
75217;HTU21D;63800;51.972;5.682;2024-02-04T04:01:21;-7.33;118.99
75217;HTU21D;63800;51.972;5.682;2024-02-04T04:03:47;-7.27;118.99
75217;HTU21D;63800;51.972;5.682;2024-02-04T04:06:12;-7.30;118.99
75217;HTU21D;63800;51.972;5.682;2024-02-04T04:08:38;-7.26;118.99
75217;HTU21D;63800;51.972;5.682;2024-02-04T04:11:04;-7.29;118.99
75217;HTU21D;63800;51.972;5.682;2024-02-04T04:13:30;-7.30;118.99
75217;HTU21D;63800;51.972;5.682;2024-02-04T04:15:57;-7.27;118.99
75217;HTU21D;63800;51.972;5.682;2024-02-04T04:18:22;-7.25;118.99
75217;HTU21D;63800;51.972;5.682;2024-02-04T04:20:48;-7.26;118.99
75217;HTU21D;63800;51.972;5.682;2024-02-04T04:23:13;-7.29;118.99
75217;HTU21D;63800;51.972;5.682;2024-02-04T04:25:39;-7.23;118.99
75217;HTU21D;63800;51.972;5.682;2024-02-04T04:28:04;-7.26;118.99
75217;HTU21D;63800;51.972;5.682;2024-02-04T04:30:29;-7.31;118.99
75217;HTU21D;63800;51.972;5.682;2024-02-04T04:32:56;-7.29;118.99
75217;HTU21D;63800;51.972;5.682;2024-02-04T04:35:21;-7.27;118.99
75217;HTU21D;63800;51.972;5.682;2024-02-04T04:37:47;-7.23;118.99
75217;HTU21D;63800;51.972;5.682;2024-02-04T04:40:12;-7.27;118.99
75217;HTU21D;63800;51.972;5.682;2024-02-04T04:42:38;-7.34;118.99
75217;HTU21D;63800;51.972;5.682;2024-02-04T04:45:04;-7.38;118.99
75217;HTU21D;63800;51.972;5.682;2024-02-04T04:47:29;-7.46;118.99
75217;HTU21D;63800;51.972;5.682;2024-02-04T04:49:55;-7.49;118.99
75217;HTU21D;63800;51.972;5.682;2024-02-04T04:52:20;-7.51;118.99
75217;HTU21D;63800;51.972;5.682;2024-02-04T04:54:47;-7.57;118.99
75217;HTU21D;63800;51.972;5.682;2024-02-04T04:57:13;-7.62;118.99
75217;HTU21D;63800;51.972;5.682;2024-02-04T04:59:39;-7.53;118.99
75217;HTU21D;63800;51.972;5.682;2024-02-04T05:02:05;-7.54;118.99
75217;HTU21D;63800;51.972;5.682;2024-02-04T05:04:30;-7.51;118.99
75217;HTU21D;63800;51.972;5.682;2024-02-04T05:06:56;-7.49;118.99
75217;HTU21D;63800;51.972;5.682;2024-02-04T05:09:22;-7.51;118.99
75217;HTU21D;63800;51.972;5.682;2024-02-04T05:11:47;-7.52;118.99
75217;HTU21D;63800;51.972;5.682;2024-02-04T05:14:12;-7.47;118.99
75217;HTU21D;63800;51.972;5.682;2024-02-04T05:16:38;-7.57;118.99
75217;HTU21D;63800;51.972;5.682;2024-02-04T05:19:03;-7.55;118.99
75217;HTU21D;63800;51.972;5.682;2024-02-04T05:21:29;-7.59;118.99
75217;HTU21D;63800;51.972;5.682;2024-02-04T05:23:54;-7.59;118.99
75217;HTU21D;63800;51.972;5.682;2024-02-04T05:26:20;-7.53;118.99
75217;HTU21D;63800;51.972;5.682;2024-02-04T05:28:45;-7.46;118.99
75217;HTU21D;63800;51.972;5.682;2024-02-04T05:31:11;-7.55;118.99
75217;HTU21D;63800;51.972;5.682;2024-02-04T05:33:36;-7.62;118.99
75217;HTU21D;63800;51.972;5.682;2024-02-04T05:36:02;-7.71;118.99
75217;HTU21D;63800;51.972;5.682;2024-02-04T05:38:29;-7.65;118.99
75217;HTU21D;63800;51.972;5.682;2024-02-04T05:40:54;-7.63;118.99
75217;HTU21D;63800;51.972;5.682;2024-02-04T05:43:19;-7.61;118.99
75217;HTU21D;63800;51.972;5.682;2024-02-04T05:45:45;-7.61;118.99
75217;HTU21D;63800;51.972;5.682;2024-02-04T05:48:10;-7.57;118.99
75217;HTU21D;63800;51.972;5.682;2024-02-04T05:50:36;-7.57;118.99
75217;HTU21D;63800;51.972;5.682;2024-02-04T05:53:02;-7.64;118.99
75217;HTU21D;63800;51.972;5.682;2024-02-04T05:55:28;-7.66;118.99
75217;HTU21D;63800;51.972;5.682;2024-02-04T05:57:54;-7.66;118.99
75217;HTU21D;63800;51.972;5.682;2024-02-04T06:00:19;-7.67;118.99
75217;HTU21D;63800;51.972;5.682;2024-02-04T06:02:45;-7.66;118.99
75217;HTU21D;63800;51.972;5.682;2024-02-04T06:05:13;-7.64;118.99
75217;HTU21D;63800;51.972;5.682;2024-02-04T06:07:39;-7.66;118.99
75217;HTU21D;63800;51.972;5.682;2024-02-04T06:10:08;-7.59;118.99
75217;HTU21D;63800;51.972;5.682;2024-02-04T06:12:34;-7.62;118.99
75217;HTU21D;63800;51.972;5.682;2024-02-04T06:15:00;-7.66;118.99
75217;HTU21D;63800;51.972;5.682;2024-02-04T06:17:25;-7.67;118.99
75217;HTU21D;63800;51.972;5.682;2024-02-04T06:19:50;-7.75;118.99
75217;HTU21D;63800;51.972;5.682;2024-02-04T06:22:16;-7.74;118.99
75217;HTU21D;63800;51.972;5.682;2024-02-04T06:24:41;-7.77;118.99
75217;HTU21D;63800;51.972;5.682;2024-02-04T06:27:07;-7.84;118.99
75217;HTU21D;63800;51.972;5.682;2024-02-04T06:29:33;-7.82;118.99
75217;HTU21D;63800;51.972;5.682;2024-02-04T06:31:59;-7.87;118.99
75217;HTU21D;63800;51.972;5.682;2024-02-04T06:34:24;-7.82;118.99
75217;HTU21D;63800;51.972;5.682;2024-02-04T06:36:50;-7.79;118.99
75217;HTU21D;63800;51.972;5.682;2024-02-04T06:39:16;-7.76;118.99
75217;HTU21D;63800;51.972;5.682;2024-02-04T06:41:41;-7.75;118.99
75217;HTU21D;63800;51.972;5.682;2024-02-04T06:44:07;-7.72;118.99
75217;HTU21D;63800;51.972;5.682;2024-02-04T06:46:32;-7.72;118.99
75217;HTU21D;63800;51.972;5.682;2024-02-04T06:48:58;-7.81;118.99
75217;HTU21D;63800;51.972;5.682;2024-02-04T06:51:23;-7.79;118.99
75217;HTU21D;63800;51.972;5.682;2024-02-04T06:53:49;-7.86;118.99
75217;HTU21D;63800;51.972;5.682;2024-02-04T06:56:14;-7.90;118.99
75217;HTU21D;63800;51.972;5.682;2024-02-04T06:58:41;-7.86;118.99
75217;HTU21D;63800;51.972;5.682;2024-02-04T07:01:06;-7.90;118.99
75217;HTU21D;63800;51.972;5.682;2024-02-04T07:03:32;-7.86;118.99
75217;HTU21D;63800;51.972;5.682;2024-02-04T07:05:58;-7.89;118.99
75217;HTU21D;63800;51.972;5.682;2024-02-04T07:08:24;-7.86;118.99
75217;HTU21D;63800;51.972;5.682;2024-02-04T07:10:50;-7.84;118.99
75217;HTU21D;63800;51.972;5.682;2024-02-04T07:13:16;-7.79;118.99
75217;HTU21D;63800;51.972;5.682;2024-02-04T07:15:42;-7.78;118.99
75217;HTU21D;63800;51.972;5.682;2024-02-04T07:18:07;-7.77;118.99
75217;HTU21D;63800;51.972;5.682;2024-02-04T07:20:33;-7.75;118.99
75217;HTU21D;63800;51.972;5.682;2024-02-04T07:22:58;-7.77;118.99
75217;HTU21D;63800;51.972;5.682;2024-02-04T07:25:24;-7.74;118.99
75217;HTU21D;63800;51.972;5.682;2024-02-04T07:27:49;-7.68;118.99
75217;HTU21D;63800;51.972;5.682;2024-02-04T07:30:15;-7.71;118.99
75217;HTU21D;63800;51.972;5.682;2024-02-04T07:32:40;-7.68;118.99
75217;HTU21D;63800;51.972;5.682;2024-02-04T07:35:06;-7.69;118.99
75217;HTU21D;63800;51.972;5.682;2024-02-04T07:37:34;-7.57;118.99
75217;HTU21D;63800;51.972;5.682;2024-02-04T07:40:00;-7.59;118.99
75217;HTU21D;63800;51.972;5.682;2024-02-04T07:42:26;-7.63;118.99
75217;HTU21D;63800;51.972;5.682;2024-02-04T07:44:51;-7.61;118.99
75217;HTU21D;63800;51.972;5.682;2024-02-04T07:47:17;-7.62;118.99
75217;HTU21D;63800;51.972;5.682;2024-02-04T07:49:44;-7.60;118.99
75217;HTU21D;63800;51.972;5.682;2024-02-04T07:52:10;-7.56;118.99
75217;HTU21D;63800;51.972;5.682;2024-02-04T07:54:35;-7.56;118.99
75217;HTU21D;63800;51.972;5.682;2024-02-04T07:57:01;-7.55;118.99
75217;HTU21D;63800;51.972;5.682;2024-02-04T07:59:26;-7.49;118.99
75217;HTU21D;63800;51.972;5.682;2024-02-04T08:01:52;-7.48;118.99
75217;HTU21D;63800;51.972;5.682;2024-02-04T08:04:17;-7.46;118.99
75217;HTU21D;63800;51.972;5.682;2024-02-04T08:06:42;-7.42;118.99
75217;HTU21D;63800;51.972;5.682;2024-02-04T08:09:08;-7.41;118.99
75217;HTU21D;63800;51.972;5.682;2024-02-04T08:11:33;-7.38;118.99
75217;HTU21D;63800;51.972;5.682;2024-02-04T08:13:59;-7.37;118.99
75217;HTU21D;63800;51.972;5.682;2024-02-04T08:16:25;-7.36;118.99
75217;HTU21D;63800;51.972;5.682;2024-02-04T08:18:51;-7.36;118.99
75217;HTU21D;63800;51.972;5.682;2024-02-04T08:21:16;-7.35;118.99
75217;HTU21D;63800;51.972;5.682;2024-02-04T08:23:42;-7.36;118.99
75217;HTU21D;63800;51.972;5.682;2024-02-04T08:26:07;-7.36;118.99
75217;HTU21D;63800;51.972;5.682;2024-02-04T08:28:32;-7.35;118.99
75217;HTU21D;63800;51.972;5.682;2024-02-04T08:30:58;-7.39;118.99
75217;HTU21D;63800;51.972;5.682;2024-02-04T08:33:23;-7.37;118.99
75217;HTU21D;63800;51.972;5.682;2024-02-04T08:35:49;-7.44;118.99
75217;HTU21D;63800;51.972;5.682;2024-02-04T08:38:14;-7.44;118.99
75217;HTU21D;63800;51.972;5.682;2024-02-04T08:40:40;-7.41;118.99
75217;HTU21D;63800;51.972;5.682;2024-02-04T08:43:05;-7.48;118.99
75217;HTU21D;63800;51.972;5.682;2024-02-04T08:45:31;-7.48;118.99
75217;HTU21D;63800;51.972;5.682;2024-02-04T08:47:56;-7.46;118.99
75217;HTU21D;63800;51.972;5.682;2024-02-04T08:50:22;-7.44;118.99
75217;HTU21D;63800;51.972;5.682;2024-02-04T08:52:47;-7.47;118.99
75217;HTU21D;63800;51.972;5.682;2024-02-04T08:55:13;-7.45;118.99
75217;HTU21D;63800;51.972;5.682;2024-02-04T08:57:38;-7.48;118.99
75217;HTU21D;63800;51.972;5.682;2024-02-04T09:00:05;-7.47;118.99
75217;HTU21D;63800;51.972;5.682;2024-02-04T09:02:36;-7.50;118.99
75217;HTU21D;63800;51.972;5.682;2024-02-04T09:05:01;-7.49;118.99
75217;HTU21D;63800;51.972;5.682;2024-02-04T09:07:27;-7.52;118.99
75217;HTU21D;63800;51.972;5.682;2024-02-04T09:09:52;-7.56;118.99
75217;HTU21D;63800;51.972;5.682;2024-02-04T09:12:17;-7.56;118.99
75217;HTU21D;63800;51.972;5.682;2024-02-04T09:14:43;-7.55;118.99
75217;HTU21D;63800;51.972;5.682;2024-02-04T09:17:09;-7.55;118.99
75217;HTU21D;63800;51.972;5.682;2024-02-04T09:19:35;-7.51;118.99
75217;HTU21D;63800;51.972;5.682;2024-02-04T09:22:01;-7.49;118.99
75217;HTU21D;63800;51.972;5.682;2024-02-04T09:24:27;-7.48;118.99
75217;HTU21D;63800;51.972;5.682;2024-02-04T09:26:53;-7.47;118.99
75217;HTU21D;63800;51.972;5.682;2024-02-04T09:29:19;-7.38;118.99
75217;HTU21D;63800;51.972;5.682;2024-02-04T09:31:45;-7.34;118.99
75217;HTU21D;63800;51.972;5.682;2024-02-04T09:34:11;-7.39;118.99
75217;HTU21D;63800;51.972;5.682;2024-02-04T09:36:36;-7.36;118.99
75217;HTU21D;63800;51.972;5.682;2024-02-04T09:39:02;-7.30;118.99
75217;HTU21D;63800;51.972;5.682;2024-02-04T09:41:27;-7.29;118.99
75217;HTU21D;63800;51.972;5.682;2024-02-04T09:43:54;-7.29;118.99
75217;HTU21D;63800;51.972;5.682;2024-02-04T09:46:19;-7.25;118.99
75217;HTU21D;63800;51.972;5.682;2024-02-04T09:48:45;-7.24;118.99
75217;HTU21D;63800;51.972;5.682;2024-02-04T09:51:11;-7.17;118.99
75217;HTU21D;63800;51.972;5.682;2024-02-04T09:53:40;-7.13;118.99
75217;HTU21D;63800;51.972;5.682;2024-02-04T09:56:08;-7.13;118.99
75217;HTU21D;63800;51.972;5.682;2024-02-04T09:58:36;-7.10;118.99
75217;HTU21D;63800;51.972;5.682;2024-02-04T10:01:02;-7.13;118.99
75217;HTU21D;63800;51.972;5.682;2024-02-04T10:03:28;-7.09;118.99
75217;HTU21D;63800;51.972;5.682;2024-02-04T10:05:53;-7.08;118.99
75217;HTU21D;63800;51.972;5.682;2024-02-04T10:08:20;-7.10;118.99
75217;HTU21D;63800;51.972;5.682;2024-02-04T10:10:46;-7.09;118.99
75217;HTU21D;63800;51.972;5.682;2024-02-04T10:13:12;-7.05;118.99
75217;HTU21D;63800;51.972;5.682;2024-02-04T10:15:38;-6.97;118.99
75217;HTU21D;63800;51.972;5.682;2024-02-04T10:18:08;-7.00;118.99
75217;HTU21D;63800;51.972;5.682;2024-02-04T10:20:33;-6.96;118.99
75217;HTU21D;63800;51.972;5.682;2024-02-04T10:22:59;-6.94;118.99
75217;HTU21D;63800;51.972;5.682;2024-02-04T10:25:25;-6.88;118.99
75217;HTU21D;63800;51.972;5.682;2024-02-04T10:27:51;-6.91;118.99
75217;HTU21D;63800;51.972;5.682;2024-02-04T10:30:20;-6.88;118.99
75217;HTU21D;63800;51.972;5.682;2024-02-04T10:32:46;-6.83;118.99
75217;HTU21D;63800;51.972;5.682;2024-02-04T10:35:12;-6.78;118.99
75217;HTU21D;63800;51.972;5.682;2024-02-04T10:37:37;-6.78;118.99
75217;HTU21D;63800;51.972;5.682;2024-02-04T10:40:03;-6.78;118.99
75217;HTU21D;63800;51.972;5.682;2024-02-04T10:42:29;-6.66;118.99
75217;HTU21D;63800;51.972;5.682;2024-02-04T10:44:57;-6.65;118.99
75217;HTU21D;63800;51.972;5.682;2024-02-04T10:47:25;-6.64;118.99
75217;HTU21D;63800;51.972;5.682;2024-02-04T10:49:54;-6.58;118.99
75217;HTU21D;63800;51.972;5.682;2024-02-04T10:52:23;-6.59;118.99
75217;HTU21D;63800;51.972;5.682;2024-02-04T10:54:53;-6.59;118.99
75217;HTU21D;63800;51.972;5.682;2024-02-04T10:57:23;-6.58;118.99
75217;HTU21D;63800;51.972;5.682;2024-02-04T10:59:51;-6.59;118.99
75217;HTU21D;63800;51.972;5.682;2024-02-04T11:02:17;-6.68;118.99
75217;HTU21D;63800;51.972;5.682;2024-02-04T11:04:45;-6.85;118.99
75217;HTU21D;63800;51.972;5.682;2024-02-04T11:07:13;-7.06;118.99
75217;HTU21D;63800;51.972;5.682;2024-02-04T11:09:40;-7.13;118.99
75217;HTU21D;63800;51.972;5.682;2024-02-04T11:12:11;-7.20;118.99
75217;HTU21D;63800;51.972;5.682;2024-02-04T11:14:40;-7.21;118.99
75217;HTU21D;63800;51.972;5.682;2024-02-04T11:20:15;-7.35;118.99
75217;HTU21D;63800;51.972;5.682;2024-02-04T11:27:56;-7.41;118.99
75217;HTU21D;63800;51.972;5.682;2024-02-04T11:30:23;-7.44;118.99
75217;HTU21D;63800;51.972;5.682;2024-02-04T11:32:48;-7.40;118.99
75217;HTU21D;63800;51.972;5.682;2024-02-04T11:35:14;-7.44;118.99
75217;HTU21D;63800;51.972;5.682;2024-02-04T11:37:40;-7.41;118.99
75217;HTU21D;63800;51.972;5.682;2024-02-04T11:40:14;-7.42;118.99
75217;HTU21D;63800;51.972;5.682;2024-02-04T11:42:41;-7.40;118.99
75217;HTU21D;63800;51.972;5.682;2024-02-04T11:45:12;-7.51;118.99
75217;HTU21D;63800;51.972;5.682;2024-02-04T11:47:38;-7.59;118.99
75217;HTU21D;63800;51.972;5.682;2024-02-04T11:50:04;-7.65;118.99
75217;HTU21D;63800;51.972;5.682;2024-02-04T11:52:30;-7.61;118.99
75217;HTU21D;63800;51.972;5.682;2024-02-04T11:54:56;-7.57;118.99
75217;HTU21D;63800;51.972;5.682;2024-02-04T11:57:23;-7.62;118.99
75217;HTU21D;63800;51.972;5.682;2024-02-04T11:59:48;-7.63;118.99
75217;HTU21D;63800;51.972;5.682;2024-02-04T12:02:18;-7.65;118.99
75217;HTU21D;63800;51.972;5.682;2024-02-04T12:04:45;-7.65;118.99
75217;HTU21D;63800;51.972;5.682;2024-02-04T12:07:13;-7.65;118.99
75217;HTU21D;63800;51.972;5.682;2024-02-04T12:09:39;-7.61;118.99
75217;HTU21D;63800;51.972;5.682;2024-02-04T12:12:05;-7.56;118.99
75217;HTU21D;63800;51.972;5.682;2024-02-04T12:14:31;-7.55;118.99
75217;HTU21D;63800;51.972;5.682;2024-02-04T12:16:57;-7.65;118.99
75217;HTU21D;63800;51.972;5.682;2024-02-04T12:19:23;-7.59;118.99
75217;HTU21D;63800;51.972;5.682;2024-02-04T12:21:49;-7.54;118.99
75217;HTU21D;63800;51.972;5.682;2024-02-04T12:24:15;-7.54;118.99
75217;HTU21D;63800;51.972;5.682;2024-02-04T12:26:40;-7.45;118.99
75217;HTU21D;63800;51.972;5.682;2024-02-04T12:29:06;-7.45;118.99
75217;HTU21D;63800;51.972;5.682;2024-02-04T12:31:32;-7.48;118.99
75217;HTU21D;63800;51.972;5.682;2024-02-04T12:34:01;-7.42;118.99
75217;HTU21D;63800;51.972;5.682;2024-02-04T12:36:27;-7.46;118.99
75217;HTU21D;63800;51.972;5.682;2024-02-04T12:38:54;-7.45;118.99
75217;HTU21D;63800;51.972;5.682;2024-02-04T12:41:24;-7.44;118.99
75217;HTU21D;63800;51.972;5.682;2024-02-04T12:46:16;-7.30;118.99
75217;HTU21D;63800;51.972;5.682;2024-02-04T12:48:42;-7.33;118.99
75217;HTU21D;63800;51.972;5.682;2024-02-04T12:51:07;-7.31;118.99
75217;HTU21D;63800;51.972;5.682;2024-02-04T12:53:33;-7.24;118.99
75217;HTU21D;63800;51.972;5.682;2024-02-04T12:55:58;-7.20;118.99
75217;HTU21D;63800;51.972;5.682;2024-02-04T12:58:27;-7.22;118.99
75217;HTU21D;63800;51.972;5.682;2024-02-04T13:01:00;-7.18;118.99
75217;HTU21D;63800;51.972;5.682;2024-02-04T13:03:26;-7.17;118.99
75217;HTU21D;63800;51.972;5.682;2024-02-04T13:05:57;-7.15;118.99
75217;HTU21D;63800;51.972;5.682;2024-02-04T13:08:23;-7.15;118.99
75217;HTU21D;63800;51.972;5.682;2024-02-04T13:10:54;-7.13;118.99
75217;HTU21D;63800;51.972;5.682;2024-02-04T13:13:21;-7.10;118.99
75217;HTU21D;63800;51.972;5.682;2024-02-04T13:15:46;-7.11;118.99
75217;HTU21D;63800;51.972;5.682;2024-02-04T13:18:12;-7.15;118.99
75217;HTU21D;63800;51.972;5.682;2024-02-04T13:20:41;-7.22;118.99
75217;HTU21D;63800;51.972;5.682;2024-02-04T13:23:10;-7.27;118.99
75217;HTU21D;63800;51.972;5.682;2024-02-04T13:25:36;-7.31;118.99
75217;HTU21D;63800;51.972;5.682;2024-02-04T13:28:01;-7.38;118.99
75217;HTU21D;63800;51.972;5.682;2024-02-04T13:30:27;-7.42;118.99
75217;HTU21D;63800;51.972;5.682;2024-02-04T13:32:53;-7.37;118.99
75217;HTU21D;63800;51.972;5.682;2024-02-04T13:35:18;-7.36;118.99
75217;HTU21D;63800;51.972;5.682;2024-02-04T13:37:45;-7.29;118.99
75217;HTU21D;63800;51.972;5.682;2024-02-04T13:40:20;-7.24;118.99
75217;HTU21D;63800;51.972;5.682;2024-02-04T13:42:46;-7.21;118.99
75217;HTU21D;63800;51.972;5.682;2024-02-04T13:45:12;-7.18;118.99
75217;HTU21D;63800;51.972;5.682;2024-02-04T13:47:44;-7.15;118.99
75217;HTU21D;63800;51.972;5.682;2024-02-04T13:50:10;-7.17;118.99
75217;HTU21D;63800;51.972;5.682;2024-02-04T13:52:36;-7.18;118.99
75217;HTU21D;63800;51.972;5.682;2024-02-04T13:55:02;-7.19;118.99
75217;HTU21D;63800;51.972;5.682;2024-02-04T13:57:30;-7.17;118.99
75217;HTU21D;63800;51.972;5.682;2024-02-04T13:59:56;-7.21;118.99
75217;HTU21D;63800;51.972;5.682;2024-02-04T14:02:21;-7.20;118.99
75217;HTU21D;63800;51.972;5.682;2024-02-04T14:04:49;-7.19;118.99
75217;HTU21D;63800;51.972;5.682;2024-02-04T14:07:14;-7.15;118.99
75217;HTU21D;63800;51.972;5.682;2024-02-04T14:09:39;-7.17;118.99
75217;HTU21D;63800;51.972;5.682;2024-02-04T14:12:05;-7.12;118.99
75217;HTU21D;63800;51.972;5.682;2024-02-04T14:14:31;-7.11;118.99
75217;HTU21D;63800;51.972;5.682;2024-02-04T14:16:57;-7.17;118.99
75217;HTU21D;63800;51.972;5.682;2024-02-04T14:19:23;-7.22;118.99
75217;HTU21D;63800;51.972;5.682;2024-02-04T14:21:48;-7.17;118.99
75217;HTU21D;63800;51.972;5.682;2024-02-04T14:24:14;-7.10;118.99
75217;HTU21D;63800;51.972;5.682;2024-02-04T14:26:39;-7.10;118.99
75217;HTU21D;63800;51.972;5.682;2024-02-04T14:29:06;-7.13;118.99
75217;HTU21D;63800;51.972;5.682;2024-02-04T14:31:32;-7.09;118.99
75217;HTU21D;63800;51.972;5.682;2024-02-04T14:33:58;-7.09;118.99
75217;HTU21D;63800;51.972;5.682;2024-02-04T14:36:24;-7.09;118.99
75217;HTU21D;63800;51.972;5.682;2024-02-04T14:38:50;-7.08;118.99
75217;HTU21D;63800;51.972;5.682;2024-02-04T14:41:16;-7.04;118.99
75217;HTU21D;63800;51.972;5.682;2024-02-04T14:43:42;-7.03;118.99
75217;HTU21D;63800;51.972;5.682;2024-02-04T14:46:08;-7.03;118.99
75217;HTU21D;63800;51.972;5.682;2024-02-04T14:48:36;-6.98;118.99
75217;HTU21D;63800;51.972;5.682;2024-02-04T14:51:02;-6.95;118.99
75217;HTU21D;63800;51.972;5.682;2024-02-04T14:53:27;-6.96;118.99
75217;HTU21D;63800;51.972;5.682;2024-02-04T14:55:53;-6.88;118.99
75217;HTU21D;63800;51.972;5.682;2024-02-04T14:58:19;-6.86;118.99
75217;HTU21D;63800;51.972;5.682;2024-02-04T15:00:45;-6.87;118.99
75217;HTU21D;63800;51.972;5.682;2024-02-04T15:03:10;-6.82;118.99
75217;HTU21D;63800;51.972;5.682;2024-02-04T15:05:36;-6.78;118.99
75217;HTU21D;63800;51.972;5.682;2024-02-04T15:08:01;-6.75;118.99
75217;HTU21D;63800;51.972;5.682;2024-02-04T15:10:27;-6.73;118.99
75217;HTU21D;63800;51.972;5.682;2024-02-04T15:12:53;-6.74;118.99